Hovedside
METAR-TAF:

METAR-TAF

Lufthavner :

Brønnøysund, Norge

Brønnøysund lufthavn

breddegrad: 65-28N, lengdegrad: 012-13E, høyde over havet: 0 m

Gjeldene værobservasjon

Denne rapporten ble laget for 11 minutter siden, klokken 21:50 UTC
Vind 12 kt fra Øst
Temperatur 15°C
Luftfuktighet 77%
Trykk 1004 hPa
Sikt 10 km eller mer

METAR: ENBN 182150Z AUTO 10012KT 9999NDV SCT074/// BKN110/// OVC150/// 15/11 Q1004

Tid: 00:01 (22:01 UTC)

Varsel

Denne rapporten ble laget for 8 timer og 1 minutter siden, klokken 14:00 UTC
Varsel gyldig fra 18. klokken 15 UTC til 18. klokken 19 UTC
Vind 10 kt fra Øst-sørøst
Sikt 10 km eller mer
Få skyer i en høyde av 4500 ft
Brutte skyer i en høyde av 8000 ft

TAF: ENBN 181400Z 1815/1819 12010KT 9999 FEW045 BKN080

Værobservasjoner og værvarsel for over 4000 flyplasser (METAR- og TAF-rapporter).

Tilgjengelige stasjoner er representert av de røde og gule prikkene på kartet.

Hold musepekeren over prikken for å se navnet på stasjonen.

Klikk så for å se værobservasjoner og -varsler.

For å forandre kartet kan du klikke på den grønne knappen med svart kryss for å zoome inn, på den grønne knappen med strek for å zoome ut, eller på de grønne pilene for å se tilstøtende kart.


METAR-TAF: